sensor_id;sensor_type;location;lat;lon;timestamp;temperature;humidity
12708;DHT22;6418;50.824;4.718;2024-02-23T00:00:52;5.20;99.90
12708;DHT22;6418;50.824;4.718;2024-02-23T00:03:19;5.20;99.90
12708;DHT22;6418;50.824;4.718;2024-02-23T00:05:46;5.20;99.90
12708;DHT22;6418;50.824;4.718;2024-02-23T00:08:14;5.20;99.90
12708;DHT22;6418;50.824;4.718;2024-02-23T00:10:41;5.20;99.90
12708;DHT22;6418;50.824;4.718;2024-02-23T00:13:08;5.20;99.90
12708;DHT22;6418;50.824;4.718;2024-02-23T00:15:35;5.10;99.90
12708;DHT22;6418;50.824;4.718;2024-02-23T00:18:02;5.10;99.90
12708;DHT22;6418;50.824;4.718;2024-02-23T00:20:30;5.10;99.90
12708;DHT22;6418;50.824;4.718;2024-02-23T00:22:56;5.10;99.90
12708;DHT22;6418;50.824;4.718;2024-02-23T00:25:25;5.10;99.90
12708;DHT22;6418;50.824;4.718;2024-02-23T00:27:52;5.10;99.90
12708;DHT22;6418;50.824;4.718;2024-02-23T00:30:18;5.10;99.90
12708;DHT22;6418;50.824;4.718;2024-02-23T00:32:45;5.10;99.90
12708;DHT22;6418;50.824;4.718;2024-02-23T00:35:13;5.00;99.90
12708;DHT22;6418;50.824;4.718;2024-02-23T00:37:40;5.00;99.90
12708;DHT22;6418;50.824;4.718;2024-02-23T00:40:08;5.00;99.90
12708;DHT22;6418;50.824;4.718;2024-02-23T00:42:37;5.00;99.90
12708;DHT22;6418;50.824;4.718;2024-02-23T00:45:05;5.00;99.90
12708;DHT22;6418;50.824;4.718;2024-02-23T00:47:32;5.00;99.90
12708;DHT22;6418;50.824;4.718;2024-02-23T00:50:00;5.00;99.90
12708;DHT22;6418;50.824;4.718;2024-02-23T00:52:27;5.00;99.90
12708;DHT22;6418;50.824;4.718;2024-02-23T00:54:54;5.00;99.90
12708;DHT22;6418;50.824;4.718;2024-02-23T00:57:21;5.00;99.90
12708;DHT22;6418;50.824;4.718;2024-02-23T00:59:54;5.00;99.90
12708;DHT22;6418;50.824;4.718;2024-02-23T01:02:21;5.00;99.90
12708;DHT22;6418;50.824;4.718;2024-02-23T01:04:48;5.00;99.90
12708;DHT22;6418;50.824;4.718;2024-02-23T01:07:15;5.10;99.90
12708;DHT22;6418;50.824;4.718;2024-02-23T01:09:42;5.10;99.90
12708;DHT22;6418;50.824;4.718;2024-02-23T01:12:08;5.10;99.90
12708;DHT22;6418;50.824;4.718;2024-02-23T01:14:35;5.10;99.90
12708;DHT22;6418;50.824;4.718;2024-02-23T01:17:04;5.10;99.90
12708;DHT22;6418;50.824;4.718;2024-02-23T01:19:30;5.10;99.90
12708;DHT22;6418;50.824;4.718;2024-02-23T01:21:57;5.00;99.90
12708;DHT22;6418;50.824;4.718;2024-02-23T01:24:25;5.00;99.90
12708;DHT22;6418;50.824;4.718;2024-02-23T01:26:53;5.00;99.90
12708;DHT22;6418;50.824;4.718;2024-02-23T01:29:20;5.00;99.90
12708;DHT22;6418;50.824;4.718;2024-02-23T01:31:47;5.00;99.90
12708;DHT22;6418;50.824;4.718;2024-02-23T01:34:16;4.90;99.90
12708;DHT22;6418;50.824;4.718;2024-02-23T01:36:43;4.90;99.90
12708;DHT22;6418;50.824;4.718;2024-02-23T01:39:10;4.80;99.90
12708;DHT22;6418;50.824;4.718;2024-02-23T01:41:37;4.80;99.90
12708;DHT22;6418;50.824;4.718;2024-02-23T01:44:04;4.80;99.90
12708;DHT22;6418;50.824;4.718;2024-02-23T01:46:31;4.80;99.90
12708;DHT22;6418;50.824;4.718;2024-02-23T01:48:59;4.80;99.90
12708;DHT22;6418;50.824;4.718;2024-02-23T01:51:27;4.70;99.90
12708;DHT22;6418;50.824;4.718;2024-02-23T01:53:54;4.70;99.90
12708;DHT22;6418;50.824;4.718;2024-02-23T01:56:22;4.70;99.90
12708;DHT22;6418;50.824;4.718;2024-02-23T01:58:49;4.70;99.90
12708;DHT22;6418;50.824;4.718;2024-02-23T02:01:16;4.70;99.90
12708;DHT22;6418;50.824;4.718;2024-02-23T02:03:43;4.70;99.90
12708;DHT22;6418;50.824;4.718;2024-02-23T02:06:10;4.70;99.90
12708;DHT22;6418;50.824;4.718;2024-02-23T02:08:39;4.60;99.90
12708;DHT22;6418;50.824;4.718;2024-02-23T02:11:06;4.60;99.90
12708;DHT22;6418;50.824;4.718;2024-02-23T02:13:33;4.60;99.90
12708;DHT22;6418;50.824;4.718;2024-02-23T02:16:01;4.60;99.90
12708;DHT22;6418;50.824;4.718;2024-02-23T02:18:28;4.60;99.90
12708;DHT22;6418;50.824;4.718;2024-02-23T02:20:56;4.60;99.90
12708;DHT22;6418;50.824;4.718;2024-02-23T02:23:23;4.60;99.90
12708;DHT22;6418;50.824;4.718;2024-02-23T02:25:55;4.60;99.90
12708;DHT22;6418;50.824;4.718;2024-02-23T02:28:23;4.60;99.90
12708;DHT22;6418;50.824;4.718;2024-02-23T02:30:51;4.60;99.90
12708;DHT22;6418;50.824;4.718;2024-02-23T02:33:18;4.60;99.90
12708;DHT22;6418;50.824;4.718;2024-02-23T02:35:45;4.60;99.90
12708;DHT22;6418;50.824;4.718;2024-02-23T02:38:12;4.60;99.90
12708;DHT22;6418;50.824;4.718;2024-02-23T02:40:39;4.70;99.90
12708;DHT22;6418;50.824;4.718;2024-02-23T02:43:07;4.60;99.90
12708;DHT22;6418;50.824;4.718;2024-02-23T02:45:34;4.70;99.90
12708;DHT22;6418;50.824;4.718;2024-02-23T02:48:01;4.70;99.90
12708;DHT22;6418;50.824;4.718;2024-02-23T02:50:28;4.80;99.90
12708;DHT22;6418;50.824;4.718;2024-02-23T02:52:55;4.80;99.90
12708;DHT22;6418;50.824;4.718;2024-02-23T02:55:22;4.80;99.90
12708;DHT22;6418;50.824;4.718;2024-02-23T02:57:49;4.80;99.90
12708;DHT22;6418;50.824;4.718;2024-02-23T03:00:18;4.90;99.90
12708;DHT22;6418;50.824;4.718;2024-02-23T03:02:45;4.90;99.90
12708;DHT22;6418;50.824;4.718;2024-02-23T03:05:11;5.00;99.90
12708;DHT22;6418;50.824;4.718;2024-02-23T03:07:38;5.00;99.90
12708;DHT22;6418;50.824;4.718;2024-02-23T03:10:06;5.00;99.90
12708;DHT22;6418;50.824;4.718;2024-02-23T03:12:33;5.00;99.90
12708;DHT22;6418;50.824;4.718;2024-02-23T03:15:00;5.00;99.90
12708;DHT22;6418;50.824;4.718;2024-02-23T03:17:29;5.00;99.90
12708;DHT22;6418;50.824;4.718;2024-02-23T03:19:56;5.00;99.90
12708;DHT22;6418;50.824;4.718;2024-02-23T03:22:23;5.10;99.90
12708;DHT22;6418;50.824;4.718;2024-02-23T03:24:50;5.10;99.90
12708;DHT22;6418;50.824;4.718;2024-02-23T03:27:17;5.10;99.90
12708;DHT22;6418;50.824;4.718;2024-02-23T03:29:44;5.10;99.90
12708;DHT22;6418;50.824;4.718;2024-02-23T03:32:11;5.10;99.90
12708;DHT22;6418;50.824;4.718;2024-02-23T03:34:39;5.20;99.90
12708;DHT22;6418;50.824;4.718;2024-02-23T03:37:06;5.20;99.90
12708;DHT22;6418;50.824;4.718;2024-02-23T03:39:33;5.10;99.90
12708;DHT22;6418;50.824;4.718;2024-02-23T03:41:59;5.10;99.90
12708;DHT22;6418;50.824;4.718;2024-02-23T03:44:26;5.20;99.90
12708;DHT22;6418;50.824;4.718;2024-02-23T03:46:53;5.20;99.90
12708;DHT22;6418;50.824;4.718;2024-02-23T03:49:20;5.10;99.90
12708;DHT22;6418;50.824;4.718;2024-02-23T03:51:48;5.10;99.90
12708;DHT22;6418;50.824;4.718;2024-02-23T03:54:15;5.00;99.90
12708;DHT22;6418;50.824;4.718;2024-02-23T03:56:42;5.20;99.90
12708;DHT22;6418;50.824;4.718;2024-02-23T03:59:09;5.10;99.90
12708;DHT22;6418;50.824;4.718;2024-02-23T04:01:36;5.10;99.90
12708;DHT22;6418;50.824;4.718;2024-02-23T04:04:04;5.20;99.90
12708;DHT22;6418;50.824;4.718;2024-02-23T04:06:31;5.20;99.90
12708;DHT22;6418;50.824;4.718;2024-02-23T04:08:59;5.10;99.90
12708;DHT22;6418;50.824;4.718;2024-02-23T04:11:26;5.20;99.90
12708;DHT22;6418;50.824;4.718;2024-02-23T04:13:53;5.20;99.90
12708;DHT22;6418;50.824;4.718;2024-02-23T04:16:23;5.20;99.90
12708;DHT22;6418;50.824;4.718;2024-02-23T04:18:50;5.20;99.90
12708;DHT22;6418;50.824;4.718;2024-02-23T04:21:17;5.20;99.90
12708;DHT22;6418;50.824;4.718;2024-02-23T04:23:44;5.20;99.90
12708;DHT22;6418;50.824;4.718;2024-02-23T04:26:13;5.20;99.90
12708;DHT22;6418;50.824;4.718;2024-02-23T04:28:41;5.10;99.90
12708;DHT22;6418;50.824;4.718;2024-02-23T04:31:08;5.20;99.90
12708;DHT22;6418;50.824;4.718;2024-02-23T04:33:35;5.10;99.90
12708;DHT22;6418;50.824;4.718;2024-02-23T04:36:02;5.10;99.90
12708;DHT22;6418;50.824;4.718;2024-02-23T04:38:29;5.10;99.90
12708;DHT22;6418;50.824;4.718;2024-02-23T04:40:57;5.20;99.90
12708;DHT22;6418;50.824;4.718;2024-02-23T04:43:25;5.20;99.90
12708;DHT22;6418;50.824;4.718;2024-02-23T04:45:52;5.20;99.90
12708;DHT22;6418;50.824;4.718;2024-02-23T04:48:19;5.20;99.90
12708;DHT22;6418;50.824;4.718;2024-02-23T04:50:46;5.20;99.90
12708;DHT22;6418;50.824;4.718;2024-02-23T04:53:13;5.20;99.90
12708;DHT22;6418;50.824;4.718;2024-02-23T04:55:40;5.20;99.90
12708;DHT22;6418;50.824;4.718;2024-02-23T04:58:07;5.20;99.90
12708;DHT22;6418;50.824;4.718;2024-02-23T05:00:35;5.30;99.90
12708;DHT22;6418;50.824;4.718;2024-02-23T05:03:03;5.30;99.90
12708;DHT22;6418;50.824;4.718;2024-02-23T05:05:30;5.30;99.90
12708;DHT22;6418;50.824;4.718;2024-02-23T05:07:57;5.30;99.90
12708;DHT22;6418;50.824;4.718;2024-02-23T05:10:24;5.30;99.90
12708;DHT22;6418;50.824;4.718;2024-02-23T05:12:51;5.30;99.90
12708;DHT22;6418;50.824;4.718;2024-02-23T05:15:18;5.30;99.90
12708;DHT22;6418;50.824;4.718;2024-02-23T05:17:46;5.30;99.90
12708;DHT22;6418;50.824;4.718;2024-02-23T05:20:14;5.30;99.90
12708;DHT22;6418;50.824;4.718;2024-02-23T05:22:41;5.30;99.90
12708;DHT22;6418;50.824;4.718;2024-02-23T05:25:08;5.30;99.90
12708;DHT22;6418;50.824;4.718;2024-02-23T05:27:35;5.30;99.90
12708;DHT22;6418;50.824;4.718;2024-02-23T05:30:02;5.30;99.90
12708;DHT22;6418;50.824;4.718;2024-02-23T05:32:30;5.30;99.90
12708;DHT22;6418;50.824;4.718;2024-02-23T05:34:58;5.30;99.90
12708;DHT22;6418;50.824;4.718;2024-02-23T05:37:25;5.30;99.90
12708;DHT22;6418;50.824;4.718;2024-02-23T05:39:52;5.40;99.90
12708;DHT22;6418;50.824;4.718;2024-02-23T05:42:20;5.40;99.90
12708;DHT22;6418;50.824;4.718;2024-02-23T05:44:47;5.30;99.90
12708;DHT22;6418;50.824;4.718;2024-02-23T05:47:14;5.40;99.90
12708;DHT22;6418;50.824;4.718;2024-02-23T05:49:41;5.40;99.90
12708;DHT22;6418;50.824;4.718;2024-02-23T05:52:09;5.40;99.90
12708;DHT22;6418;50.824;4.718;2024-02-23T05:54:36;5.30;99.90
12708;DHT22;6418;50.824;4.718;2024-02-23T05:57:04;5.30;99.90
12708;DHT22;6418;50.824;4.718;2024-02-23T05:59:31;5.30;99.90
12708;DHT22;6418;50.824;4.718;2024-02-23T06:01:58;5.40;99.90
12708;DHT22;6418;50.824;4.718;2024-02-23T06:04:25;5.30;99.90
12708;DHT22;6418;50.824;4.718;2024-02-23T06:06:52;5.30;99.90
12708;DHT22;6418;50.824;4.718;2024-02-23T06:09:21;5.30;99.90
12708;DHT22;6418;50.824;4.718;2024-02-23T06:11:47;5.30;99.90
12708;DHT22;6418;50.824;4.718;2024-02-23T06:14:14;5.40;99.90
12708;DHT22;6418;50.824;4.718;2024-02-23T06:16:41;5.40;99.90
12708;DHT22;6418;50.824;4.718;2024-02-23T06:19:08;5.40;99.90
12708;DHT22;6418;50.824;4.718;2024-02-23T06:21:35;5.40;99.90
12708;DHT22;6418;50.824;4.718;2024-02-23T06:24:02;5.40;99.90
12708;DHT22;6418;50.824;4.718;2024-02-23T06:26:31;5.40;99.90
12708;DHT22;6418;50.824;4.718;2024-02-23T06:28:58;5.40;99.90
12708;DHT22;6418;50.824;4.718;2024-02-23T06:31:25;5.40;99.90
12708;DHT22;6418;50.824;4.718;2024-02-23T06:33:52;5.40;99.90
12708;DHT22;6418;50.824;4.718;2024-02-23T06:36:19;5.30;99.90
12708;DHT22;6418;50.824;4.718;2024-02-23T06:38:46;5.30;99.90
12708;DHT22;6418;50.824;4.718;2024-02-23T06:41:13;5.40;99.90
12708;DHT22;6418;50.824;4.718;2024-02-23T06:43:41;5.40;99.90
12708;DHT22;6418;50.824;4.718;2024-02-23T06:46:08;5.40;99.90
12708;DHT22;6418;50.824;4.718;2024-02-23T06:48:36;5.40;99.90
12708;DHT22;6418;50.824;4.718;2024-02-23T06:51:03;5.40;99.90
12708;DHT22;6418;50.824;4.718;2024-02-23T06:53:31;5.40;99.90
12708;DHT22;6418;50.824;4.718;2024-02-23T06:55:58;5.40;99.90
12708;DHT22;6418;50.824;4.718;2024-02-23T06:58:26;5.40;99.90
12708;DHT22;6418;50.824;4.718;2024-02-23T07:00:54;5.40;99.90
12708;DHT22;6418;50.824;4.718;2024-02-23T07:03:21;5.50;99.90
12708;DHT22;6418;50.824;4.718;2024-02-23T07:05:48;5.50;99.90
12708;DHT22;6418;50.824;4.718;2024-02-23T07:08:16;5.50;99.90
12708;DHT22;6418;50.824;4.718;2024-02-23T07:10:43;5.50;99.90
12708;DHT22;6418;50.824;4.718;2024-02-23T07:13:10;5.50;99.90
12708;DHT22;6418;50.824;4.718;2024-02-23T07:15:37;5.50;99.90
12708;DHT22;6418;50.824;4.718;2024-02-23T07:18:06;5.50;99.90
12708;DHT22;6418;50.824;4.718;2024-02-23T07:20:34;5.50;99.90
12708;DHT22;6418;50.824;4.718;2024-02-23T07:23:01;5.60;99.90
12708;DHT22;6418;50.824;4.718;2024-02-23T07:25:28;5.60;99.90
12708;DHT22;6418;50.824;4.718;2024-02-23T07:27:55;5.60;99.90
12708;DHT22;6418;50.824;4.718;2024-02-23T07:30:22;5.60;99.90
12708;DHT22;6418;50.824;4.718;2024-02-23T07:32:49;5.60;99.90
12708;DHT22;6418;50.824;4.718;2024-02-23T07:35:18;5.60;99.90
12708;DHT22;6418;50.824;4.718;2024-02-23T07:37:45;5.60;99.90
12708;DHT22;6418;50.824;4.718;2024-02-23T07:40:12;5.60;99.90
12708;DHT22;6418;50.824;4.718;2024-02-23T07:42:39;5.60;99.90
12708;DHT22;6418;50.824;4.718;2024-02-23T07:45:07;5.60;99.90
12708;DHT22;6418;50.824;4.718;2024-02-23T07:47:34;5.70;99.90
12708;DHT22;6418;50.824;4.718;2024-02-23T07:50:02;5.70;99.90
12708;DHT22;6418;50.824;4.718;2024-02-23T07:52:30;5.70;99.90
12708;DHT22;6418;50.824;4.718;2024-02-23T07:54:57;5.70;99.90
12708;DHT22;6418;50.824;4.718;2024-02-23T07:57:25;5.70;99.90
12708;DHT22;6418;50.824;4.718;2024-02-23T07:59:52;5.80;99.90
12708;DHT22;6418;50.824;4.718;2024-02-23T08:02:19;5.80;99.90
12708;DHT22;6418;50.824;4.718;2024-02-23T08:04:46;5.80;99.90
12708;DHT22;6418;50.824;4.718;2024-02-23T08:07:15;5.90;99.90
12708;DHT22;6418;50.824;4.718;2024-02-23T08:09:43;5.90;99.90
12708;DHT22;6418;50.824;4.718;2024-02-23T08:12:11;6.00;99.90
12708;DHT22;6418;50.824;4.718;2024-02-23T08:14:39;6.00;99.90
12708;DHT22;6418;50.824;4.718;2024-02-23T08:17:06;6.00;99.90
12708;DHT22;6418;50.824;4.718;2024-02-23T08:19:33;6.00;99.90
12708;DHT22;6418;50.824;4.718;2024-02-23T08:22:00;6.00;99.90
12708;DHT22;6418;50.824;4.718;2024-02-23T08:24:27;6.00;99.90
12708;DHT22;6418;50.824;4.718;2024-02-23T08:26:55;6.00;99.90
12708;DHT22;6418;50.824;4.718;2024-02-23T08:29:22;6.10;99.90
12708;DHT22;6418;50.824;4.718;2024-02-23T08:31:49;6.10;99.90
12708;DHT22;6418;50.824;4.718;2024-02-23T08:34:16;6.10;99.90
12708;DHT22;6418;50.824;4.718;2024-02-23T08:36:44;6.10;99.90
12708;DHT22;6418;50.824;4.718;2024-02-23T08:39:10;6.10;99.90
12708;DHT22;6418;50.824;4.718;2024-02-23T08:41:38;6.10;99.90
12708;DHT22;6418;50.824;4.718;2024-02-23T08:44:06;6.10;99.90
12708;DHT22;6418;50.824;4.718;2024-02-23T08:46:34;6.00;99.90
12708;DHT22;6418;50.824;4.718;2024-02-23T08:49:03;6.00;99.90
12708;DHT22;6418;50.824;4.718;2024-02-23T08:51:30;6.00;99.90
12708;DHT22;6418;50.824;4.718;2024-02-23T08:53:57;6.00;99.90
12708;DHT22;6418;50.824;4.718;2024-02-23T08:56:28;6.00;99.90
12708;DHT22;6418;50.824;4.718;2024-02-23T08:58:55;6.00;99.90
12708;DHT22;6418;50.824;4.718;2024-02-23T09:01:23;6.00;99.90
12708;DHT22;6418;50.824;4.718;2024-02-23T09:03:50;6.00;99.90
12708;DHT22;6418;50.824;4.718;2024-02-23T09:06:17;6.10;99.90
12708;DHT22;6418;50.824;4.718;2024-02-23T09:08:45;6.10;99.90
12708;DHT22;6418;50.824;4.718;2024-02-23T09:11:12;6.20;99.90
12708;DHT22;6418;50.824;4.718;2024-02-23T09:13:41;6.20;99.90
12708;DHT22;6418;50.824;4.718;2024-02-23T09:16:08;6.20;99.90
12708;DHT22;6418;50.824;4.718;2024-02-23T09:18:36;6.20;99.90
12708;DHT22;6418;50.824;4.718;2024-02-23T09:21:04;6.20;99.90
12708;DHT22;6418;50.824;4.718;2024-02-23T09:23:31;6.20;99.90
12708;DHT22;6418;50.824;4.718;2024-02-23T09:25:58;6.20;99.90
12708;DHT22;6418;50.824;4.718;2024-02-23T09:28:25;6.20;99.90
12708;DHT22;6418;50.824;4.718;2024-02-23T09:30:52;6.20;99.90
12708;DHT22;6418;50.824;4.718;2024-02-23T09:33:19;6.20;99.90
12708;DHT22;6418;50.824;4.718;2024-02-23T09:35:47;6.20;99.90
12708;DHT22;6418;50.824;4.718;2024-02-23T09:38:14;6.20;99.90
12708;DHT22;6418;50.824;4.718;2024-02-23T09:40:41;6.30;99.90
12708;DHT22;6418;50.824;4.718;2024-02-23T09:43:08;6.30;99.90
12708;DHT22;6418;50.824;4.718;2024-02-23T09:45:38;6.30;99.90
12708;DHT22;6418;50.824;4.718;2024-02-23T09:48:07;6.30;99.90
12708;DHT22;6418;50.824;4.718;2024-02-23T09:50:35;6.30;99.90
12708;DHT22;6418;50.824;4.718;2024-02-23T09:53:06;6.40;99.90
12708;DHT22;6418;50.824;4.718;2024-02-23T09:55:36;6.40;99.90
12708;DHT22;6418;50.824;4.718;2024-02-23T09:58:03;6.40;99.90
12708;DHT22;6418;50.824;4.718;2024-02-23T10:00:31;6.50;99.90
12708;DHT22;6418;50.824;4.718;2024-02-23T10:03:00;6.50;99.90
12708;DHT22;6418;50.824;4.718;2024-02-23T10:05:30;6.50;99.90
12708;DHT22;6418;50.824;4.718;2024-02-23T10:07:57;6.60;99.90
12708;DHT22;6418;50.824;4.718;2024-02-23T10:10:29;6.60;99.90
12708;DHT22;6418;50.824;4.718;2024-02-23T10:12:57;6.70;99.90
12708;DHT22;6418;50.824;4.718;2024-02-23T10:15:24;6.80;99.90
12708;DHT22;6418;50.824;4.718;2024-02-23T10:17:51;6.80;99.90
12708;DHT22;6418;50.824;4.718;2024-02-23T10:20:19;6.80;99.90
12708;DHT22;6418;50.824;4.718;2024-02-23T10:22:47;6.90;99.90
12708;DHT22;6418;50.824;4.718;2024-02-23T10:25:14;6.90;99.90
12708;DHT22;6418;50.824;4.718;2024-02-23T10:27:42;7.00;99.90
12708;DHT22;6418;50.824;4.718;2024-02-23T10:30:10;7.00;99.90
12708;DHT22;6418;50.824;4.718;2024-02-23T10:32:38;7.00;99.90
12708;DHT22;6418;50.824;4.718;2024-02-23T10:35:10;7.00;99.90
12708;DHT22;6418;50.824;4.718;2024-02-23T10:37:37;7.00;99.90
12708;DHT22;6418;50.824;4.718;2024-02-23T10:40:06;6.90;99.90
12708;DHT22;6418;50.824;4.718;2024-02-23T10:42:38;7.00;99.90
12708;DHT22;6418;50.824;4.718;2024-02-23T10:45:08;7.00;99.90
12708;DHT22;6418;50.824;4.718;2024-02-23T10:47:36;7.10;99.90
12708;DHT22;6418;50.824;4.718;2024-02-23T10:50:04;7.10;99.90
12708;DHT22;6418;50.824;4.718;2024-02-23T10:52:32;7.10;99.90
12708;DHT22;6418;50.824;4.718;2024-02-23T10:55:01;7.10;99.90
12708;DHT22;6418;50.824;4.718;2024-02-23T10:57:30;7.20;99.90
12708;DHT22;6418;50.824;4.718;2024-02-23T10:59:58;7.30;99.90
12708;DHT22;6418;50.824;4.718;2024-02-23T11:02:28;7.30;99.90
12708;DHT22;6418;50.824;4.718;2024-02-23T11:04:58;7.40;99.90
12708;DHT22;6418;50.824;4.718;2024-02-23T11:07:29;7.40;99.90
12708;DHT22;6418;50.824;4.718;2024-02-23T11:09:59;7.50;99.90
12708;DHT22;6418;50.824;4.718;2024-02-23T11:12:28;7.60;99.90
12708;DHT22;6418;50.824;4.718;2024-02-23T11:14:59;7.60;99.90
12708;DHT22;6418;50.824;4.718;2024-02-23T11:17:30;7.70;99.90
12708;DHT22;6418;50.824;4.718;2024-02-23T11:19:58;7.80;99.90
12708;DHT22;6418;50.824;4.718;2024-02-23T11:22:26;7.80;99.90
12708;DHT22;6418;50.824;4.718;2024-02-23T11:24:59;7.90;99.90
12708;DHT22;6418;50.824;4.718;2024-02-23T11:27:30;7.90;99.90
12708;DHT22;6418;50.824;4.718;2024-02-23T11:30:02;8.00;99.90
12708;DHT22;6418;50.824;4.718;2024-02-23T11:32:46;8.10;99.90
12708;DHT22;6418;50.824;4.718;2024-02-23T11:35:15;8.20;99.90
12708;DHT22;6418;50.824;4.718;2024-02-23T11:37:46;8.20;99.90
12708;DHT22;6418;50.824;4.718;2024-02-23T11:40:13;8.30;99.90
12708;DHT22;6418;50.824;4.718;2024-02-23T11:42:41;8.30;99.90
12708;DHT22;6418;50.824;4.718;2024-02-23T11:45:09;8.30;99.90
12708;DHT22;6418;50.824;4.718;2024-02-23T11:47:36;8.30;99.90
12708;DHT22;6418;50.824;4.718;2024-02-23T11:50:07;8.30;99.90
12708;DHT22;6418;50.824;4.718;2024-02-23T11:52:35;8.40;99.90
12708;DHT22;6418;50.824;4.718;2024-02-23T11:55:02;8.40;99.90
12708;DHT22;6418;50.824;4.718;2024-02-23T11:57:30;8.40;99.90
12708;DHT22;6418;50.824;4.718;2024-02-23T11:59:57;8.40;99.90
12708;DHT22;6418;50.824;4.718;2024-02-23T12:02:24;8.40;99.90
12708;DHT22;6418;50.824;4.718;2024-02-23T12:04:51;8.40;99.90
12708;DHT22;6418;50.824;4.718;2024-02-23T12:07:19;8.40;99.90
12708;DHT22;6418;50.824;4.718;2024-02-23T12:09:47;8.40;99.90
12708;DHT22;6418;50.824;4.718;2024-02-23T12:12:14;8.30;99.90
12708;DHT22;6418;50.824;4.718;2024-02-23T12:14:42;8.40;99.90
12708;DHT22;6418;50.824;4.718;2024-02-23T12:17:09;8.30;99.90
12708;DHT22;6418;50.824;4.718;2024-02-23T12:19:38;8.30;99.90
12708;DHT22;6418;50.824;4.718;2024-02-23T12:22:05;8.30;99.90
12708;DHT22;6418;50.824;4.718;2024-02-23T12:24:34;8.30;99.90
12708;DHT22;6418;50.824;4.718;2024-02-23T12:27:01;8.30;99.90
12708;DHT22;6418;50.824;4.718;2024-02-23T12:29:28;8.40;99.90
12708;DHT22;6418;50.824;4.718;2024-02-23T12:32:03;8.40;99.90
12708;DHT22;6418;50.824;4.718;2024-02-23T12:34:30;8.50;99.90
12708;DHT22;6418;50.824;4.718;2024-02-23T12:36:57;8.50;99.90
12708;DHT22;6418;50.824;4.718;2024-02-23T12:39:24;8.50;99.90
12708;DHT22;6418;50.824;4.718;2024-02-23T12:41:53;8.60;99.90
12708;DHT22;6418;50.824;4.718;2024-02-23T12:44:22;8.60;99.90
12708;DHT22;6418;50.824;4.718;2024-02-23T12:46:49;8.60;99.90
12708;DHT22;6418;50.824;4.718;2024-02-23T12:49:16;8.50;99.90
12708;DHT22;6418;50.824;4.718;2024-02-23T12:51:43;8.50;99.90
12708;DHT22;6418;50.824;4.718;2024-02-23T12:54:10;8.50;99.90
12708;DHT22;6418;50.824;4.718;2024-02-23T12:56:36;8.40;99.90
12708;DHT22;6418;50.824;4.718;2024-02-23T12:59:05;8.50;99.90
12708;DHT22;6418;50.824;4.718;2024-02-23T13:01:32;8.50;99.90
12708;DHT22;6418;50.824;4.718;2024-02-23T13:04:02;8.50;99.90
12708;DHT22;6418;50.824;4.718;2024-02-23T13:06:35;8.50;99.90
12708;DHT22;6418;50.824;4.718;2024-02-23T13:09:02;8.60;99.90
12708;DHT22;6418;50.824;4.718;2024-02-23T13:11:29;8.60;99.90
12708;DHT22;6418;50.824;4.718;2024-02-23T13:13:56;8.60;99.90
12708;DHT22;6418;50.824;4.718;2024-02-23T13:16:25;8.70;99.90
12708;DHT22;6418;50.824;4.718;2024-02-23T13:18:52;8.70;99.90
12708;DHT22;6418;50.824;4.718;2024-02-23T13:21:19;8.70;99.90
12708;DHT22;6418;50.824;4.718;2024-02-23T13:23:46;8.70;99.90
12708;DHT22;6418;50.824;4.718;2024-02-23T13:26:13;8.70;99.90
12708;DHT22;6418;50.824;4.718;2024-02-23T13:28:41;8.70;99.90
12708;DHT22;6418;50.824;4.718;2024-02-23T13:31:08;8.70;99.90
12708;DHT22;6418;50.824;4.718;2024-02-23T13:33:36;8.80;99.90
12708;DHT22;6418;50.824;4.718;2024-02-23T13:36:04;8.80;99.90
12708;DHT22;6418;50.824;4.718;2024-02-23T13:38:31;8.90;99.90
12708;DHT22;6418;50.824;4.718;2024-02-23T13:41:03;9.00;99.90
12708;DHT22;6418;50.824;4.718;2024-02-23T13:43:30;9.00;99.90
12708;DHT22;6418;50.824;4.718;2024-02-23T13:45:59;9.00;99.90
12708;DHT22;6418;50.824;4.718;2024-02-23T13:48:26;9.00;99.90
12708;DHT22;6418;50.824;4.718;2024-02-23T13:50:54;8.90;99.90
12708;DHT22;6418;50.824;4.718;2024-02-23T13:53:21;8.90;99.90
12708;DHT22;6418;50.824;4.718;2024-02-23T13:55:48;8.90;99.90
12708;DHT22;6418;50.824;4.718;2024-02-23T13:58:15;8.90;99.90
12708;DHT22;6418;50.824;4.718;2024-02-23T14:00:42;8.90;99.90
12708;DHT22;6418;50.824;4.718;2024-02-23T14:03:16;8.90;99.90
12708;DHT22;6418;50.824;4.718;2024-02-23T14:05:43;8.90;99.90
12708;DHT22;6418;50.824;4.718;2024-02-23T14:08:12;8.90;99.90
12708;DHT22;6418;50.824;4.718;2024-02-23T14:10:39;8.80;99.90
12708;DHT22;6418;50.824;4.718;2024-02-23T14:13:08;8.80;99.90
12708;DHT22;6418;50.824;4.718;2024-02-23T14:15:35;8.70;99.90
12708;DHT22;6418;50.824;4.718;2024-02-23T14:18:02;8.70;99.90
12708;DHT22;6418;50.824;4.718;2024-02-23T14:20:29;8.70;99.90
12708;DHT22;6418;50.824;4.718;2024-02-23T14:22:56;8.70;99.90
12708;DHT22;6418;50.824;4.718;2024-02-23T14:25:24;8.70;99.90
12708;DHT22;6418;50.824;4.718;2024-02-23T14:27:51;8.70;99.90
12708;DHT22;6418;50.824;4.718;2024-02-23T14:30:18;8.60;99.90
12708;DHT22;6418;50.824;4.718;2024-02-23T14:32:45;8.60;99.90
12708;DHT22;6418;50.824;4.718;2024-02-23T14:35:12;8.60;99.90
12708;DHT22;6418;50.824;4.718;2024-02-23T14:37:38;8.50;99.90
12708;DHT22;6418;50.824;4.718;2024-02-23T14:40:07;8.60;99.90
12708;DHT22;6418;50.824;4.718;2024-02-23T14:42:35;8.60;99.90
12708;DHT22;6418;50.824;4.718;2024-02-23T14:45:03;8.50;99.90
12708;DHT22;6418;50.824;4.718;2024-02-23T14:47:30;8.60;99.90
12708;DHT22;6418;50.824;4.718;2024-02-23T14:49:57;8.60;99.90
12708;DHT22;6418;50.824;4.718;2024-02-23T14:52:24;8.60;99.90
12708;DHT22;6418;50.824;4.718;2024-02-23T14:54:51;8.60;99.90
12708;DHT22;6418;50.824;4.718;2024-02-23T14:57:19;8.60;99.90
12708;DHT22;6418;50.824;4.718;2024-02-23T14:59:47;8.60;99.90
12708;DHT22;6418;50.824;4.718;2024-02-23T15:02:19;8.60;99.90
12708;DHT22;6418;50.824;4.718;2024-02-23T15:04:46;8.60;99.90
12708;DHT22;6418;50.824;4.718;2024-02-23T15:07:14;8.70;99.90
12708;DHT22;6418;50.824;4.718;2024-02-23T15:09:41;8.70;99.90
12708;DHT22;6418;50.824;4.718;2024-02-23T15:12:08;8.70;99.90
12708;DHT22;6418;50.824;4.718;2024-02-23T15:14:35;8.70;99.90
12708;DHT22;6418;50.824;4.718;2024-02-23T15:17:03;8.80;99.90
12708;DHT22;6418;50.824;4.718;2024-02-23T15:19:30;8.80;99.90
12708;DHT22;6418;50.824;4.718;2024-02-23T15:21:57;8.80;99.90
12708;DHT22;6418;50.824;4.718;2024-02-23T15:24:24;8.80;99.90
12708;DHT22;6418;50.824;4.718;2024-02-23T15:26:51;8.80;99.90
12708;DHT22;6418;50.824;4.718;2024-02-23T15:29:18;8.70;99.90
12708;DHT22;6418;50.824;4.718;2024-02-23T15:31:45;8.80;99.90
12708;DHT22;6418;50.824;4.718;2024-02-23T15:34:13;8.80;99.90
12708;DHT22;6418;50.824;4.718;2024-02-23T15:36:40;8.80;99.90
12708;DHT22;6418;50.824;4.718;2024-02-23T15:39:07;8.80;99.90
12708;DHT22;6418;50.824;4.718;2024-02-23T15:41:34;8.70;99.90
12708;DHT22;6418;50.824;4.718;2024-02-23T15:44:01;8.70;99.90
12708;DHT22;6418;50.824;4.718;2024-02-23T15:46:28;8.60;99.90
12708;DHT22;6418;50.824;4.718;2024-02-23T15:48:56;8.60;99.90
12708;DHT22;6418;50.824;4.718;2024-02-23T15:51:24;8.50;99.90
12708;DHT22;6418;50.824;4.718;2024-02-23T15:53:52;8.60;99.90
12708;DHT22;6418;50.824;4.718;2024-02-23T15:56:20;8.60;99.90
12708;DHT22;6418;50.824;4.718;2024-02-23T15:58:47;8.60;99.90
12708;DHT22;6418;50.824;4.718;2024-02-23T16:01:14;8.60;99.90
12708;DHT22;6418;50.824;4.718;2024-02-23T16:03:40;8.50;99.90